Time;durP1;ratioP1;P1;durP2;ratioP2;P2;SDS_P1;SDS_P2;PMS_P1;PMS_P2;Temp;Humidity;BMP_temperature;BMP_pressure;BME280_temperature;BME280_humidity;BME280_pressure;Samples;Min_cycle;Max_cycle;Signal;HPM_P1;HPM_P2
2024/01/27 00:03:56;;;;;;;;;;;;;;;21.50;47.38;97177.63;10479038;28;3110;-65
2024/01/27 00:08:56;;;;;;;;;;;;;;;21.51;47.35;97189.00;10475834;28;2973;-64
2024/01/27 00:13:57;;;;;;;;;;;;;;;21.45;47.40;97184.69;10479595;28;2850;-66
2024/01/27 00:18:57;;;;;;;;;;;;;;;21.37;47.06;97185.91;10476595;28;2973;-65
2024/01/27 00:24:00;;;;;;;;;;;;;;;21.34;47.31;97181.13;10482736;28;2866;-65
2024/01/27 00:29:01;;;;;;;;;;;;;;;21.37;47.22;97167.44;10478169;28;2957;-66
2024/01/27 00:34:01;;;;;;;;;;;;;;;21.45;47.59;97172.28;10479946;28;3131;-65
2024/01/27 00:39:02;;;;;;;;;;;;;;;21.46;46.78;97173.09;10479964;28;2834;-64
2024/01/27 00:44:03;;;;;;;;;;;;;;;21.46;46.42;97173.09;10473237;28;2920;-66
2024/01/27 00:49:03;;;;;;;;;;;;;;;21.46;46.89;97178.38;10469277;28;2898;-65
2024/01/27 00:54:03;;;;;;;;;;;;;;;21.57;46.91;97173.00;10473983;28;2924;-65
2024/01/27 00:59:04;;;;;;;;;;;;;;;21.49;46.57;97169.97;10468966;28;3024;-65
2024/01/27 01:04:04;;;;;;;;;;;;;;;21.49;47.00;97170.78;10473627;28;2973;-65
2024/01/27 01:09:04;;;;;;;;;;;;;;;21.48;46.13;97174.44;10471916;28;3001;-65
2024/01/27 01:14:04;;;;;;;;;;;;;;;21.34;47.13;97182.97;10468637;28;2931;-65
2024/01/27 01:19:05;;;;;;;;;;;;;;;21.44;46.90;97178.63;10473560;28;2965;-65
2024/01/27 01:24:05;;;;;;;;;;;;;;;21.48;46.64;97185.00;10471563;28;2902;-65
2024/01/27 01:29:05;;;;;;;;;;;;;;;21.45;46.65;97180.19;10475148;28;2920;-66
2024/01/27 01:34:05;;;;;;;;;;;;;;;21.57;46.25;97183.53;10470801;28;2870;-65
2024/01/27 01:39:06;;;;;;;;;;;;;;;21.52;45.91;97203.78;10471530;28;2934;-65
2024/01/27 01:44:06;;;;;;;;;;;;;;;21.51;47.33;97200.34;10465842;28;2969;-64
2024/01/27 01:49:06;;;;;;;;;;;;;;;21.51;46.10;97207.47;10468352;28;2892;-65
2024/01/27 01:54:07;;;;;;;;;;;;;;;21.49;45.63;97209.56;10470111;28;2883;-65
2024/01/27 01:59:10;;;;;;;;;;;;;;;21.42;46.48;97215.00;10473391;28;2823;-64
2024/01/27 02:04:10;;;;;;;;;;;;;;;21.51;46.79;97212.75;10476771;28;2876;-67
2024/01/27 02:09:13;;;;;;;;;;;;;;;21.51;46.34;97226.75;10500568;28;2906;-65
2024/01/27 02:14:13;;;;;;;;;;;;;;;21.46;46.78;97237.22;10486420;28;2953;-65
2024/01/27 02:19:13;;;;;;;;;;;;;;;21.48;47.00;97234.31;10473283;28;2918;-66
2024/01/27 02:24:14;;;;;;;;;;;;;;;21.51;46.11;97236.50;10462955;28;3012;-65
2024/01/27 02:29:14;;;;;;;;;;;;;;;21.49;46.25;97244.66;10483917;28;3001;-65
2024/01/27 02:34:14;;;;;;;;;;;;;;;21.51;46.98;97239.13;10470278;28;3087;-65
2024/01/27 02:39:15;;;;;;;;;;;;;;;21.49;46.91;97233.28;10476173;28;3061;-64
2024/01/27 02:44:15;;;;;;;;;;;;;;;21.48;46.44;97229.84;10471561;28;3058;-63
2024/01/27 02:49:15;;;;;;;;;;;;;;;21.51;47.15;97236.50;10475071;28;2901;-65
2024/01/27 02:54:15;;;;;;;;;;;;;;;21.54;46.44;97239.44;10472124;28;3017;-65
2024/01/27 02:59:16;;;;;;;;;;;;;;;21.53;45.71;97234.41;10471724;28;3168;-64
2024/01/27 03:04:16;;;;;;;;;;;;;;;21.37;47.21;97243.94;10467448;28;2985;-63
2024/01/27 03:09:16;;;;;;;;;;;;;;;21.53;46.19;97250.25;10474102;28;2984;-65
2024/01/27 03:14:16;;;;;;;;;;;;;;;21.44;46.71;97255.13;10469469;28;2895;-66
2024/01/27 03:19:17;;;;;;;;;;;;;;;21.53;46.01;97250.25;10468241;28;3059;-63
2024/01/27 03:24:17;;;;;;;;;;;;;;;21.45;46.07;97255.94;10463831;28;2861;-65
2024/01/27 03:29:17;;;;;;;;;;;;;;;21.47;45.96;97261.75;10467483;28;2925;-66
2024/01/27 03:34:19;;;;;;;;;;;;;;;21.53;45.75;97276.63;10472333;28;2872;-65
2024/01/27 03:39:19;;;;;;;;;;;;;;;21.41;46.84;97283.84;10469281;28;2920;-65
2024/01/27 03:44:19;;;;;;;;;;;;;;;21.40;46.38;97293.59;10470268;28;3184;-65
2024/01/27 03:49:20;;;;;;;;;;;;;;;21.44;46.14;97299.16;10474230;28;3054;-65
2024/01/27 03:54:20;;;;;;;;;;;;;;;21.35;46.34;97311.97;10467747;28;3019;-65
2024/01/27 03:59:21;;;;;;;;;;;;;;;21.37;46.00;97309.88;10469976;28;3131;-65
2024/01/27 04:04:21;;;;;;;;;;;;;;;21.38;46.49;97308.84;10470155;28;2912;-65
2024/01/27 04:09:21;;;;;;;;;;;;;;;21.41;45.94;97304.94;10469219;28;2888;-65
2024/01/27 04:14:21;;;;;;;;;;;;;;;21.42;45.98;97322.34;10466125;28;2947;-65
2024/01/27 04:19:22;;;;;;;;;;;;;;;21.45;46.30;97313.97;10465848;28;2907;-66
2024/01/27 04:24:22;;;;;;;;;;;;;;;21.39;45.80;97307.03;10473946;28;2873;-65
2024/01/27 04:29:22;;;;;;;;;;;;;;;21.33;46.10;97308.75;10470715;28;2993;-64
2024/01/27 04:34:22;;;;;;;;;;;;;;;21.37;46.13;97304.59;10469260;28;2997;-66
2024/01/27 04:39:23;;;;;;;;;;;;;;;21.36;46.23;97318.03;10470858;28;2907;-65
2024/01/27 04:44:23;;;;;;;;;;;;;;;21.33;46.53;97324.59;10470314;28;2969;-64
2024/01/27 04:49:24;;;;;;;;;;;;;;;21.36;46.48;97321.50;10473763;28;2871;-65
2024/01/27 04:54:25;;;;;;;;;;;;;;;21.43;46.55;97323.97;10477586;28;2923;-65
2024/01/27 04:59:25;;;;;;;;;;;;;;;21.36;46.01;97320.69;10476346;28;3415;-65
2024/01/27 05:04:26;;;;;;;;;;;;;;;21.29;45.16;97341.16;10476546;28;2859;-64
2024/01/27 05:09:26;;;;;;;;;;;;;;;21.21;43.84;97333.63;10469983;28;2857;-65
2024/01/27 05:14:27;;;;;;;;;;;;;;;21.19;42.71;97333.06;10467122;28;3323;-66
2024/01/27 05:19:27;;;;;;;;;;;;;;;21.20;42.23;97345.22;10473563;28;2989;-66
2024/01/27 05:24:29;;;;;;;;;;;;;;;21.21;41.99;97341.53;10473409;28;2993;-66
2024/01/27 05:29:29;;;;;;;;;;;;;;;21.20;41.60;97351.31;10477791;28;2845;-66
2024/01/27 05:34:29;;;;;;;;;;;;;;;21.24;41.38;97367.44;10474431;28;2951;-66
2024/01/27 05:39:30;;;;;;;;;;;;;;;21.23;41.31;97365.81;10470339;28;3019;-66
2024/01/27 05:44:30;;;;;;;;;;;;;;;21.24;41.06;97364.81;10468236;28;3041;-66
2024/01/27 05:49:31;;;;;;;;;;;;;;;21.24;40.74;97375.34;10474193;28;2770;-66
2024/01/27 05:54:31;;;;;;;;;;;;;;;21.30;40.23;97382.31;10468675;28;2873;-67
2024/01/27 05:59:31;;;;;;;;;;;;;;;21.31;39.73;97383.91;10464830;28;2958;-65
2024/01/27 06:04:33;;;;;;;;;;;;;;;21.30;39.73;97391.03;10470228;28;2833;-66
2024/01/27 06:09:33;;;;;;;;;;;;;;;21.31;39.79;97391.84;10473863;28;2841;-66
2024/01/27 06:14:33;;;;;;;;;;;;;;;21.33;39.20;97389.75;10466614;28;2849;-66
2024/01/27 06:19:33;;;;;;;;;;;;;;;21.34;39.34;97399.25;10471325;28;2825;-69
2024/01/27 06:24:34;;;;;;;;;;;;;;;21.36;38.83;97399.81;10470571;28;2885;-66
2024/01/27 06:29:34;;;;;;;;;;;;;;;21.36;39.05;97415.66;10464690;28;2840;-66
2024/01/27 06:34:34;;;;;;;;;;;;;;;21.39;38.69;97408.03;10498922;28;2933;-65
2024/01/27 06:39:35;;;;;;;;;;;;;;;21.43;38.13;97408.38;10469939;28;3031;-65
2024/01/27 06:44:35;;;;;;;;;;;;;;;21.40;37.92;97420.22;10466832;28;2921;-65
2024/01/27 06:49:35;;;;;;;;;;;;;;;21.39;38.07;97413.31;10471888;28;2922;-66
2024/01/27 06:54:36;;;;;;;;;;;;;;;21.44;37.49;97409.97;10468043;28;2810;-66
2024/01/27 06:59:36;;;;;;;;;;;;;;;21.41;37.82;97415.75;10470499;28;2926;-65
2024/01/27 07:04:36;;;;;;;;;;;;;;;21.42;37.95;97419.97;10463491;28;2828;-65
2024/01/27 07:09:37;;;;;;;;;;;;;;;21.42;37.42;97422.59;10469067;28;2868;-65
2024/01/27 07:14:37;;;;;;;;;;;;;;;21.45;37.26;97417.63;10468080;28;2829;-66
2024/01/27 07:19:37;;;;;;;;;;;;;;;21.41;37.25;97426.28;10466786;28;2755;-66
2024/01/27 07:24:37;;;;;;;;;;;;;;;21.42;37.30;97427.88;10473236;28;2901;-66
2024/01/27 07:29:38;;;;;;;;;;;;;;;21.45;36.98;97432.69;10469929;28;3068;-66
2024/01/27 07:34:40;;;;;;;;;;;;;;;21.46;36.69;97429.81;10470318;28;2817;-66
2024/01/27 07:39:40;;;;;;;;;;;;;;;21.45;36.73;97432.69;10474368;28;2980;-67
2024/01/27 07:44:41;;;;;;;;;;;;;;;21.48;36.47;97432.19;10471306;28;2866;-66
2024/01/27 07:49:42;;;;;;;;;;;;;;;21.47;36.56;97436.69;10472417;28;2883;-66
2024/01/27 07:54:42;;;;;;;;;;;;;;;21.47;36.65;97441.97;10480886;28;2831;-66
2024/01/27 07:59:42;;;;;;;;;;;;;;;21.53;36.21;97441.03;10478735;28;2810;-66
2024/01/27 08:04:42;;;;;;;;;;;;;;;21.49;36.62;97441.72;10477685;28;2814;-65
2024/01/27 08:09:43;;;;;;;;;;;;;;;21.52;36.53;97449.97;10476712;28;2874;-66
2024/01/27 08:14:43;;;;;;;;;;;;;;;21.54;35.52;97441.78;10474217;28;2873;-66
2024/01/27 08:19:44;;;;;;;;;;;;;;;21.54;35.91;97445.25;10476493;28;2904;-65
2024/01/27 08:24:46;;;;;;;;;;;;;;;21.53;35.98;97450.75;10477154;28;2852;-65
2024/01/27 08:29:47;;;;;;;;;;;;;;;21.54;35.88;97461.06;10479816;28;2869;-65
2024/01/27 08:34:47;;;;;;;;;;;;;;;21.55;36.24;97465.31;10469551;28;2831;-66
2024/01/27 08:39:47;;;;;;;;;;;;;;;21.54;36.59;97457.63;10474455;28;2968;-66
2024/01/27 08:44:48;;;;;;;;;;;;;;;21.57;36.26;97462.44;10476616;28;2809;-66
2024/01/27 08:49:48;;;;;;;;;;;;;;;21.56;36.05;97461.63;10472019;28;2885;-65
2024/01/27 08:54:48;;;;;;;;;;;;;;;21.58;35.92;97459.56;10476254;28;2842;-66
2024/01/27 08:59:48;;;;;;;;;;;;;;;21.61;35.87;97463.56;10472465;28;2941;-65
2024/01/27 09:04:49;;;;;;;;;;;;;;;21.62;36.37;97467.78;10471544;28;2945;-64
2024/01/27 09:09:49;;;;;;;;;;;;;;;21.67;36.56;97463.41;10472748;28;2869;-65
2024/01/27 09:14:49;;;;;;;;;;;;;;;21.90;39.23;97477.53;10467915;28;3174;-67
2024/01/27 09:19:50;;;;;;;;;;;;;;;21.95;39.78;97478.38;10468014;28;2905;-65
2024/01/27 09:24:51;;;;;;;;;;;;;;;22.03;39.24;97477.22;10472262;28;2938;-67
2024/01/27 09:29:51;;;;;;;;;;;;;;;22.10;41.41;97481.28;10467444;28;2970;-69
2024/01/27 09:34:53;;;;;;;;;;;;;;;22.15;40.74;97486.66;10473002;28;2790;-68
2024/01/27 09:39:53;;;;;;;;;;;;;;;22.12;43.02;97489.75;10473780;28;2916;-65
2024/01/27 09:44:54;;;;;;;;;;;;;;;22.13;42.52;97494.00;10474660;28;2801;-67
2024/01/27 09:49:54;;;;;;;;;;;;;;;22.17;42.57;97503.03;10474682;28;2901;-67
2024/01/27 09:54:55;;;;;;;;;;;;;;;22.10;42.45;97504.22;10473531;28;2830;-66
2024/01/27 09:59:55;;;;;;;;;;;;;;;22.07;43.28;97510.00;10469770;28;2813;-65
2024/01/27 10:04:55;;;;;;;;;;;;;;;22.05;42.99;97510.22;10470432;28;2894;-69
2024/01/27 10:09:56;;;;;;;;;;;;;;;21.94;43.58;97510.31;10470029;28;2974;-70
2024/01/27 10:14:56;;;;;;;;;;;;;;;22.04;42.67;97508.66;10473709;28;2949;-72
2024/01/27 10:20:03;;;;;;;;;;;;;;;21.92;44.33;97513.22;10469640;28;2873;-72
2024/01/27 10:25:04;;;;;;;;;;;;;;;21.89;43.36;97505.75;10469987;28;3048;-69
2024/01/27 10:30:04;;;;;;;;;;;;;;;21.99;42.66;97491.94;10499843;28;3192;-76
2024/01/27 10:35:05;;;;;;;;;;;;;;;21.97;44.83;97489.50;10470575;28;2899;-76
2024/01/27 10:40:08;;;;;;;;;;;;;;;22.07;43.77;97491.53;10499421;28;2946;-75
2024/01/27 10:45:09;;;;;;;;;;;;;;;21.88;44.51;97485.69;10468116;28;3106;-69
2024/01/27 10:50:09;;;;;;;;;;;;;;;21.90;44.37;97486.25;10471707;28;2971;-68
2024/01/27 10:55:10;;;;;;;;;;;;;;;21.96;44.90;97477.38;10470434;28;2743;-67
2024/01/27 11:00:10;;;;;;;;;;;;;;;22.09;40.60;97474.38;10471022;28;2977;-67
2024/01/27 11:05:11;;;;;;;;;;;;;;;21.19;38.14;97464.91;10466164;28;2860;-68
2024/01/27 11:10:11;;;;;;;;;;;;;;;20.98;39.72;97459.25;10493684;28;3233;-68
2024/01/27 11:15:11;;;;;;;;;;;;;;;19.90;35.39;97470.59;10464456;28;2934;-70
2024/01/27 11:20:12;;;;;;;;;;;;;;;18.82;35.81;97456.75;10493391;28;2910;-72
2024/01/27 11:25:16;;;;;;;;;;;;;;;17.82;36.68;97439.63;10463442;28;2754;-69
2024/01/27 11:30:27;;;;;;;;;;;;;;;18.62;39.70;97448.31;10465710;28;2919;-67
2024/01/27 11:35:28;;;;;;;;;;;;;;;19.39;40.71;97455.41;10463759;28;2905;-67
2024/01/27 11:40:28;;;;;;;;;;;;;;;19.66;42.30;97442.66;10466417;28;2789;-68
2024/01/27 11:45:29;;;;;;;;;;;;;;;19.90;42.41;97444.28;10468364;28;2960;-67
2024/01/27 11:50:30;;;;;;;;;;;;;;;20.07;43.11;97445.19;10493962;28;2904;-67
2024/01/27 11:55:30;;;;;;;;;;;;;;;20.10;44.03;97448.16;10460858;28;2861;-68
2024/01/27 12:00:30;;;;;;;;;;;;;;;20.16;44.01;97438.53;10462063;28;3135;-67
2024/01/27 12:05:30;;;;;;;;;;;;;;;20.12;45.18;97440.84;10467192;28;2907;-68
2024/01/27 12:10:31;;;;;;;;;;;;;;;20.10;45.20;97440.28;10464480;28;2851;-68
2024/01/27 12:15:31;;;;;;;;;;;;;;;20.30;41.07;97441.78;10464365;28;2806;-68
2024/01/27 12:20:31;;;;;;;;;;;;;;;20.38;41.40;97439.56;10463361;28;2829;-68
2024/01/27 12:25:32;;;;;;;;;;;;;;;20.36;41.28;97435.59;10461397;28;2832;-67
2024/01/27 12:30:33;;;;;;;;;;;;;;;20.40;40.56;97427.00;10457402;28;3073;-67
2024/01/27 12:35:33;;;;;;;;;;;;;;;20.47;40.61;97429.47;10463763;28;2883;-67
2024/01/27 12:40:33;;;;;;;;;;;;;;;20.52;41.18;97416.44;10463667;28;2818;-67
2024/01/27 12:45:34;;;;;;;;;;;;;;;20.56;41.23;97412.28;10469199;28;2812;-67
2024/01/27 12:50:35;;;;;;;;;;;;;;;20.61;41.08;97410.53;10471101;28;2889;-67
2024/01/27 12:55:35;;;;;;;;;;;;;;;20.65;40.13;97410.91;10474347;28;2872;-68
2024/01/27 13:00:35;;;;;;;;;;;;;;;20.70;40.53;97409.16;10470844;28;2841;-67
2024/01/27 13:05:35;;;;;;;;;;;;;;;20.73;39.43;97400.00;10477239;28;2845;-66
2024/01/27 13:10:36;;;;;;;;;;;;;;;20.75;39.79;97400.56;10462212;28;2830;-67
2024/01/27 13:15:36;;;;;;;;;;;;;;;20.77;40.23;97394.00;10473242;28;2872;-66
2024/01/27 13:20:36;;;;;;;;;;;;;;;20.80;40.22;97385.63;10475832;28;2821;-67
2024/01/27 13:25:37;;;;;;;;;;;;;;;20.84;40.57;97385.94;10478798;28;3080;-66
2024/01/27 13:30:37;;;;;;;;;;;;;;;20.87;40.43;97402.09;10471769;28;2808;-67
2024/01/27 13:35:39;;;;;;;;;;;;;;;20.91;40.63;97390.06;10474925;28;2817;-66
2024/01/27 13:40:40;;;;;;;;;;;;;;;20.94;41.03;97392.22;10469234;28;2976;-66
2024/01/27 13:45:40;;;;;;;;;;;;;;;20.99;41.37;97392.31;10467461;28;2817;-67
2024/01/27 13:50:41;;;;;;;;;;;;;;;21.06;40.80;97395.63;10473122;28;2922;-66
2024/01/27 13:55:44;;;;;;;;;;;;;;;21.11;39.45;97389.63;10474622;28;2846;-66
2024/01/27 14:00:44;;;;;;;;;;;;;;;21.14;41.14;97388.38;10474309;28;2822;-66
2024/01/27 14:05:46;;;;;;;;;;;;;;;21.19;38.90;97383.97;10477772;28;2894;-65
2024/01/27 14:10:49;;;;;;;;;;;;;;;21.17;39.98;97382.59;10483443;28;2832;-65
2024/01/27 14:15:49;;;;;;;;;;;;;;;21.19;39.63;97389.25;10465754;28;2918;-66
2024/01/27 14:20:52;;;;;;;;;;;;;;;21.16;41.41;97404.75;10472645;28;2916;-65
2024/01/27 14:25:53;;;;;;;;;;;;;;;21.11;41.70;97392.28;10465354;28;2791;-65
2024/01/27 14:30:53;;;;;;;;;;;;;;;21.05;41.99;97394.03;10468757;28;2901;-65
2024/01/27 14:35:53;;;;;;;;;;;;;;;21.03;41.86;97390.84;10466539;28;2839;-65
2024/01/27 14:40:53;;;;;;;;;;;;;;;20.98;40.72;97393.34;10466736;28;3448;-66
2024/01/27 14:45:55;;;;;;;;;;;;;;;20.93;41.38;97387.97;10461983;28;2878;-65
2024/01/27 14:51:01;;;;;;;;;;;;;;;20.89;41.31;97383.41;10469306;28;2850;-65
2024/01/27 14:56:02;;;;;;;;;;;;;;;20.86;40.82;97382.03;10464807;28;2905;-65
2024/01/27 15:01:04;;;;;;;;;;;;;;;20.80;41.71;97366.38;10492698;28;3143;-65
2024/01/27 15:06:05;;;;;;;;;;;;;;;20.77;41.46;97356.31;10495864;28;2905;-65
2024/01/27 15:11:05;;;;;;;;;;;;;;;20.76;42.34;97365.25;10468127;28;2907;-64
2024/01/27 15:16:06;;;;;;;;;;;;;;;20.74;43.86;97356.78;10465449;28;2922;-64
2024/01/27 15:21:06;;;;;;;;;;;;;;;20.73;46.86;97342.78;10469263;28;2860;-61
2024/01/27 15:26:06;;;;;;;;;;;;;;;20.72;44.44;97349.09;10464538;28;2850;-61
2024/01/27 15:31:07;;;;;;;;;;;;;;;20.72;48.18;97349.09;10449152;28;2769;-61
2024/01/27 15:36:07;;;;;;;;;;;;;;;20.71;44.74;97352.75;10466346;28;2811;-63
2024/01/27 15:41:08;;;;;;;;;;;;;;;20.66;44.35;97360.59;10461574;28;2887;-63
2024/01/27 15:46:10;;;;;;;;;;;;;;;20.65;44.51;97364.25;10459076;28;3102;-64
2024/01/27 15:51:10;;;;;;;;;;;;;;;20.67;45.03;97362.19;10466986;28;2908;-64
2024/01/27 15:56:10;;;;;;;;;;;;;;;20.64;45.31;97365.31;10465535;28;2869;-64
2024/01/27 16:01:11;;;;;;;;;;;;;;;20.65;45.13;97363.47;10496846;28;2915;-64
2024/01/27 16:06:11;;;;;;;;;;;;;;;20.63;45.97;97366.31;10465517;28;2843;-65
2024/01/27 16:11:11;;;;;;;;;;;;;;;20.66;45.67;97363.22;10468070;28;2992;-63
2024/01/27 16:16:11;;;;;;;;;;;;;;;20.66;46.31;97365.06;10474698;28;2832;-65
2024/01/27 16:21:12;;;;;;;;;;;;;;;20.67;46.04;97370.09;10471651;28;2901;-65
2024/01/27 16:26:13;;;;;;;;;;;;;;;20.69;46.83;97365.38;10499005;27;2925;-68
2024/01/27 16:31:13;;;;;;;;;;;;;;;20.71;46.85;97371.22;10469035;28;2824;-67
2024/01/27 16:36:13;;;;;;;;;;;;;;;20.77;47.13;97386.09;10472445;28;3041;-66
2024/01/27 16:41:15;;;;;;;;;;;;;;;20.79;47.92;97376.09;10467894;28;2871;-66
2024/01/27 16:46:15;;;;;;;;;;;;;;;20.90;48.26;97391.06;10472352;28;2812;-67
2024/01/27 16:51:15;;;;;;;;;;;;;;;20.86;47.10;97397.06;10474375;28;2878;-66
2024/01/27 16:56:17;;;;;;;;;;;;;;;20.84;46.23;97396.50;10474608;28;3218;-67
2024/01/27 17:01:18;;;;;;;;;;;;;;;20.92;46.77;97396.09;10464520;28;2910;-70
2024/01/27 17:06:19;;;;;;;;;;;;;;;20.94;47.07;97391.41;10468614;28;2944;-70
2024/01/27 17:11:19;;;;;;;;;;;;;;;21.05;47.55;97398.50;10500421;28;2861;-70
2024/01/27 17:16:20;;;;;;;;;;;;;;;21.08;48.09;97389.31;10464460;28;2850;-69
2024/01/27 17:21:23;;;;;;;;;;;;;;;21.23;46.88;97405.38;10464077;28;2948;-70
2024/01/27 17:26:23;;;;;;;;;;;;;;;21.24;46.59;97409.63;10461081;28;2874;-70
2024/01/27 17:31:24;;;;;;;;;;;;;;;21.39;45.23;97423.09;10466731;28;3056;-68
2024/01/27 17:36:24;;;;;;;;;;;;;;;21.41;44.97;97423.66;10500823;28;3023;-70
2024/01/27 17:41:24;;;;;;;;;;;;;;;21.46;46.02;97429.81;10467176;28;2859;-69
2024/01/27 17:46:24;;;;;;;;;;;;;;;21.49;45.63;97431.97;10471539;28;2826;-70
2024/01/27 17:51:25;;;;;;;;;;;;;;;21.61;45.20;97437.19;10466536;28;2920;-68
2024/01/27 17:56:25;;;;;;;;;;;;;;;21.62;44.02;97439.56;10464975;28;2926;-68
2024/01/27 18:01:25;;;;;;;;;;;;;;;21.60;43.00;97425.81;10473508;28;2888;-69
2024/01/27 18:06:25;;;;;;;;;;;;;;;21.57;43.70;97434.22;10469938;28;2857;-69
2024/01/27 18:11:26;;;;;;;;;;;;;;;21.53;41.99;97443.66;10474809;28;2821;-68
2024/01/27 18:16:26;;;;;;;;;;;;;;;21.52;44.73;97441.22;10465001;28;2822;-68
2024/01/27 18:21:27;;;;;;;;;;;;;;;21.59;47.53;97447.97;10481976;28;2829;-69
2024/01/27 18:26:27;;;;;;;;;;;;;;;21.56;43.97;97455.53;10469325;28;2898;-68
2024/01/27 18:31:27;;;;;;;;;;;;;;;21.49;46.48;97462.84;10468341;28;2796;-69
2024/01/27 18:36:28;;;;;;;;;;;;;;;21.34;48.44;97462.56;10490879;28;2934;-68
2024/01/27 18:41:28;;;;;;;;;;;;;;;21.36;45.04;97463.13;10460978;28;2851;-69
2024/01/27 18:46:28;;;;;;;;;;;;;;;21.37;43.46;97459.47;10467629;28;2808;-69
2024/01/27 18:51:28;;;;;;;;;;;;;;;21.27;44.38;97469.84;10475660;28;2789;-71
2024/01/27 18:56:29;;;;;;;;;;;;;;;21.21;46.68;97470.75;10473637;28;1501;-70
2024/01/27 19:01:29;;;;;;;;;;;;;;;21.21;45.41;97468.94;10477290;28;2513;-69
2024/01/27 19:06:30;;;;;;;;;;;;;;;21.22;43.15;97464.47;10483400;28;1491;-70
2024/01/27 19:11:31;;;;;;;;;;;;;;;21.17;43.79;97467.00;10481953;28;1905;-70
2024/01/27 19:16:31;;;;;;;;;;;;;;;21.16;42.31;97468.03;10480504;28;1485;-69
2024/01/27 19:21:31;;;;;;;;;;;;;;;21.16;44.05;97481.22;10484054;28;1534;-68
2024/01/27 19:26:31;;;;;;;;;;;;;;;21.19;42.43;97488.66;10493976;28;1626;-68
2024/01/27 19:31:33;;;;;;;;;;;;;;;21.20;42.03;97488.44;10481264;28;1959;-69
2024/01/27 19:36:34;;;;;;;;;;;;;;;21.19;44.30;97478.09;10482130;28;3033;-69
2024/01/27 19:41:34;;;;;;;;;;;;;;;21.19;42.37;97475.47;10481150;28;2546;-68
2024/01/27 19:46:34;;;;;;;;;;;;;;;21.10;46.14;97485.63;10483032;28;2224;-66
2024/01/27 19:51:41;;;;;;;;;;;;;;;21.20;45.22;97477.09;10491617;28;1905;-67
2024/01/27 19:56:41;;;;;;;;;;;;;;;21.18;42.59;97477.31;10489010;28;1632;-72
2024/01/27 20:01:42;;;;;;;;;;;;;;;21.02;43.87;97470.13;10489368;28;1489;-71
2024/01/27 20:06:42;;;;;;;;;;;;;;;21.13;42.41;97471.13;10489789;28;2849;-71
2024/01/27 20:11:43;;;;;;;;;;;;;;;20.94;45.23;97468.66;10488067;28;2261;-73
2024/01/27 20:16:46;;;;;;;;;;;;;;;21.16;45.73;97468.03;10489656;28;2174;-69
2024/01/27 20:21:47;;;;;;;;;;;;;;;21.19;44.17;97471.00;10477765;28;2684;-70
2024/01/27 20:26:50;;;;;;;;;;;;;;;21.18;45.67;97479.16;10485427;28;1550;-69
2024/01/27 20:31:50;;;;;;;;;;;;;;;21.16;43.21;97475.94;10486209;28;1901;-71
2024/01/27 20:36:50;;;;;;;;;;;;;;;21.12;43.29;97474.81;10482319;28;2999;-71
2024/01/27 20:41:51;;;;;;;;;;;;;;;21.14;44.17;97472.75;10483204;28;2261;-69
2024/01/27 20:46:51;;;;;;;;;;;;;;;21.06;42.55;97468.66;10481622;28;1467;-71
2024/01/27 20:51:52;;;;;;;;;;;;;;;21.03;42.61;97467.28;10484190;28;1974;-70
2024/01/27 20:56:54;;;;;;;;;;;;;;;20.98;44.47;97464.50;10489313;28;1529;-70
2024/01/27 21:01:58;;;;;;;;;;;;;;;20.98;44.93;97464.50;10484448;28;2325;-70
2024/01/27 21:06:58;;;;;;;;;;;;;;;20.96;43.35;97466.59;10480943;28;1725;-69
2024/01/27 21:11:58;;;;;;;;;;;;;;;20.92;47.37;97462.00;10481239;28;1906;-68
2024/01/27 21:16:59;;;;;;;;;;;;;;;20.99;44.34;97460.84;10484981;28;1714;-69
2024/01/27 21:21:59;;;;;;;;;;;;;;;20.96;42.03;97461.31;10484121;28;1691;-69
2024/01/27 21:27:00;;;;;;;;;;;;;;;20.89;46.92;97458.03;10483115;28;1410;-69
2024/01/27 21:32:00;;;;;;;;;;;;;;;20.92;42.66;97444.38;10482895;28;1965;-69
2024/01/27 21:37:00;;;;;;;;;;;;;;;20.74;49.46;97447.19;10485058;28;3004;-69
2024/01/27 21:42:01;;;;;;;;;;;;;;;20.78;44.46;97447.50;10481568;28;1731;-69
2024/01/27 21:47:01;;;;;;;;;;;;;;;20.64;49.83;97440.91;10478791;28;2102;-70
2024/01/27 21:52:02;;;;;;;;;;;;;;;20.69;47.43;97422.56;10489265;28;1909;-69
2024/01/27 21:57:03;;;;;;;;;;;;;;;20.57;50.03;97425.22;10487459;28;1470;-69
2024/01/27 22:02:03;;;;;;;;;;;;;;;20.59;47.66;97425.78;10487935;28;1864;-70
2024/01/27 22:07:03;;;;;;;;;;;;;;;20.49;49.77;97420.31;10489773;28;1494;-69
2024/01/27 22:12:04;;;;;;;;;;;;;;;20.58;43.07;97428.66;10486891;28;1910;-70
2024/01/27 22:17:04;;;;;;;;;;;;;;;20.45;47.24;97431.53;10475337;28;2918;-69
2024/01/27 22:22:05;;;;;;;;;;;;;;;20.47;45.65;97418.94;10469424;28;2861;-68
2024/01/27 22:27:05;;;;;;;;;;;;;;;20.43;46.24;97423.88;10471836;28;2834;-65
2024/01/27 22:32:06;;;;;;;;;;;;;;;20.33;46.35;97426.31;10462887;28;2876;-65
2024/01/27 22:37:06;;;;;;;;;;;;;;;20.26;44.54;97421.16;10468407;28;2892;-67
2024/01/27 22:42:07;;;;;;;;;;;;;;;20.27;42.66;97414.88;10465911;28;2865;-67
2024/01/27 22:47:09;;;;;;;;;;;;;;;20.19;44.07;97409.97;10464218;28;2821;-67
2024/01/27 22:52:09;;;;;;;;;;;;;;;20.08;46.56;97405.47;10465090;28;2985;-66
2024/01/27 22:57:09;;;;;;;;;;;;;;;20.04;47.96;97403.53;10471974;28;2826;-65
2024/01/27 23:02:10;;;;;;;;;;;;;;;20.06;45.84;97406.72;10470931;28;2880;-66
2024/01/27 23:07:10;;;;;;;;;;;;;;;20.03;43.02;97394.03;10465994;28;2764;-66
2024/01/27 23:12:13;;;;;;;;;;;;;;;19.93;45.84;97384.06;10465501;28;2835;-65
2024/01/27 23:17:13;;;;;;;;;;;;;;;19.90;45.17;97381.91;10461534;28;2884;-66
2024/01/27 23:22:13;;;;;;;;;;;;;;;19.90;43.11;97373.22;10467144;28;3139;-66
2024/01/27 23:27:14;;;;;;;;;;;;;;;19.89;42.27;97374.22;10464608;28;2840;-66
2024/01/27 23:32:14;;;;;;;;;;;;;;;19.79;46.45;97368.75;10471943;28;2830;-66
2024/01/27 23:37:14;;;;;;;;;;;;;;;19.74;47.04;97363.38;10464416;28;2930;-65
2024/01/27 23:42:15;;;;;;;;;;;;;;;19.78;42.86;97361.91;10465848;28;2946;-65
2024/01/27 23:47:15;;;;;;;;;;;;;;;19.75;44.91;97352.63;10464013;28;3111;-66
2024/01/27 23:52:19;;;;;;;;;;;;;;;19.74;42.30;97342.34;10469731;28;2987;-66
2024/01/27 23:57:20;;;;;;;;;;;;;;;19.72;43.91;97339.13;10469352;28;2904;-66
